Time;durP1;ratioP1;P1;durP2;ratioP2;P2;SDS_P1;SDS_P2;PMS_P1;PMS_P2;Temp;Humidity;BMP_temperature;BMP_pressure;BME280_temperature;BME280_humidity;BME280_pressure;Samples;Min_cycle;Max_cycle;Signal;HPM_P1;HPM_P2
2021/03/09 00:01:23;;;;;;;11.18;6.90;;;6.40;70.80;;;;;;4951975;29;20022;-95
2021/03/09 00:03:49;;;;;;;13.70;8.45;;;6.40;71.10;;;;;;4943545;29;20024;-93
2021/03/09 00:06:14;;;;;;;11.38;6.75;;;6.40;71.10;;;;;;4951354;29;20032;-96
2021/03/09 00:08:40;;;;;;;14.77;8.45;;;6.30;71.50;;;;;;4937840;29;20030;-94
2021/03/09 00:11:05;;;;;;;13.38;7.32;;;6.30;72.10;;;;;;4949900;28;20066;-93
2021/03/09 00:13:31;;;;;;;11.43;6.72;;;6.20;72.50;;;;;;4956174;29;20027;-93
2021/03/09 00:15:56;;;;;;;11.00;6.68;;;6.10;72.90;;;;;;4958334;29;20114;-93
2021/03/09 00:18:22;;;;;;;11.85;7.10;;;6.10;72.90;;;;;;4949998;29;20047;-95
2021/03/09 00:20:47;;;;;;;11.32;6.93;;;6.10;73.00;;;;;;4949449;28;20027;-94
2021/03/09 00:23:13;;;;;;;10.50;6.47;;;6.00;73.10;;;;;;4949347;29;20134;-93
2021/03/09 00:25:38;;;;;;;9.38;5.32;;;6.00;73.10;;;;;;4944836;29;20027;-95
2021/03/09 00:28:04;;;;;;;9.50;5.68;;;6.00;73.20;;;;;;4945299;29;20062;-96
2021/03/09 00:30:30;;;;;;;11.55;6.78;;;6.00;73.10;;;;;;4950306;29;20031;-95
2021/03/09 00:32:55;;;;;;;9.50;5.95;;;6.00;73.30;;;;;;4945928;29;20034;-95
2021/03/09 00:35:21;;;;;;;8.95;5.88;;;5.90;73.20;;;;;;4941388;29;20032;-96
2021/03/09 00:37:46;;;;;;;11.77;6.50;;;6.00;73.30;;;;;;4949024;29;20130;-95
2021/03/09 00:40:12;;;;;;;8.82;5.55;;;5.90;73.40;;;;;;4941714;28;20034;-96
2021/03/09 00:42:38;;;;;;;10.13;6.30;;;5.90;73.60;;;;;;4959044;28;20047;-95
2021/03/09 00:45:04;;;;;;;8.65;5.53;;;5.90;73.70;;;;;;4935566;29;20115;-94
2021/03/09 00:47:30;;;;;;;11.65;7.10;;;5.90;73.70;;;;;;4956118;28;20026;-94
2021/03/09 00:49:55;;;;;;;11.13;7.45;;;5.90;73.90;;;;;;4967968;28;20034;-93
2021/03/09 00:52:21;;;;;;;11.50;7.35;;;5.90;73.90;;;;;;4954835;29;20027;-93
2021/03/09 00:54:46;;;;;;;11.57;6.75;;;5.80;74.40;;;;;;4956379;28;20505;-93
2021/03/09 00:57:12;;;;;;;13.25;7.82;;;5.90;74.30;;;;;;4961837;28;20042;-94
2021/03/09 00:59:37;;;;;;;11.35;6.90;;;5.90;74.60;;;;;;4954186;29;20031;-94
2021/03/09 01:02:03;;;;;;;11.75;7.10;;;5.80;74.70;;;;;;4954041;29;20521;-93
2021/03/09 01:04:29;;;;;;;9.55;6.57;;;5.80;75.00;;;;;;4954711;29;20498;-94
2021/03/09 01:06:54;;;;;;;10.45;6.85;;;5.80;74.90;;;;;;4954119;29;20023;-94
2021/03/09 01:09:20;;;;;;;11.57;7.50;;;5.80;75.10;;;;;;4955507;29;20062;-95
2021/03/09 01:11:45;;;;;;;13.23;7.97;;;5.80;75.30;;;;;;4943642;28;20481;-94
2021/03/09 01:14:11;;;;;;;14.55;9.18;;;5.70;75.40;;;;;;4948163;28;20028;-95
2021/03/09 01:16:36;;;;;;;16.40;10.32;;;5.70;75.50;;;;;;4936389;29;20023;-93
2021/03/09 01:19:02;;;;;;;15.35;9.60;;;5.70;75.60;;;;;;4944388;28;20031;-94
2021/03/09 01:21:28;;;;;;;11.77;6.35;;;5.70;75.60;;;;;;4938674;28;20039;-96
2021/03/09 01:23:54;;;;;;;11.88;7.40;;;5.80;75.50;;;;;;4935607;29;20038;-94
2021/03/09 01:26:19;;;;;;;13.10;8.40;;;5.80;75.40;;;;;;4952740;28;20034;-95
2021/03/09 01:28:45;;;;;;;12.18;7.20;;;5.80;75.50;;;;;;4954270;28;20478;-96
2021/03/09 01:31:10;;;;;;;14.07;8.18;;;5.70;75.60;;;;;;4936723;29;20098;-95
2021/03/09 01:33:36;;;;;;;13.13;7.57;;;5.70;75.60;;;;;;4948314;28;20047;-94
2021/03/09 01:36:02;;;;;;;16.88;10.27;;;5.80;75.70;;;;;;4935743;29;20023;-93
2021/03/09 01:38:27;;;;;;;14.48;9.02;;;5.80;75.90;;;;;;4958272;28;20057;-94
2021/03/09 01:40:53;;;;;;;15.45;9.45;;;5.80;76.70;;;;;;4974268;28;20066;-94
2021/03/09 01:43:18;;;;;;;18.98;11.13;;;5.70;76.20;;;;;;4965766;28;20027;-94
2021/03/09 01:45:44;;;;;;;14.27;8.60;;;5.60;76.70;;;;;;4954742;29;20031;-93
2021/03/09 01:48:10;;;;;;;14.82;8.32;;;5.60;76.90;;;;;;4960434;28;20061;-94
2021/03/09 01:50:41;;;;;;;17.77;10.32;;;5.60;76.90;;;;;;4973180;28;20019;-92
2021/03/09 01:53:07;;;;;;;13.75;8.20;;;5.60;77.10;;;;;;4965056;28;20038;-94
2021/03/09 01:55:35;;;;;;;18.02;10.38;;;5.60;77.00;;;;;;4972475;28;20037;-93
2021/03/09 01:58:05;;;;;;;15.95;9.73;;;5.60;77.10;;;;;;4964065;28;20562;-95
2021/03/09 02:00:30;;;;;;;17.45;10.48;;;5.60;77.40;;;;;;4957319;28;20039;-94
2021/03/09 02:02:57;;;;;;;30.02;18.23;;;5.60;77.40;;;;;;4955473;28;20024;-94
2021/03/09 02:05:22;;;;;;;22.48;14.23;;;5.60;77.60;;;;;;4970624;28;20034;-94
2021/03/09 02:07:48;;;;;;;21.55;13.48;;;5.60;77.80;;;;;;4951258;28;20019;-92
2021/03/09 02:10:15;;;;;;;13.25;7.70;;;5.50;78.10;;;;;;4939176;28;20498;-92
2021/03/09 02:12:44;;;;;;;17.17;11.02;;;5.50;77.90;;;;;;4936885;28;20019;-92
2021/03/09 02:15:33;;;;;;;19.77;12.07;;;5.50;78.00;;;;;;4969308;28;20109;-93
2021/03/09 02:18:26;;;;;;;19.63;12.20;;;5.50;78.10;;;;;;4973639;28;20083;-93
2021/03/09 02:21:19;;;;;;;20.42;11.32;;;5.50;78.30;;;;;;4950105;29;20035;-93
2021/03/09 02:24:21;;;;;;;18.70;11.20;;;5.50;78.10;;;;;;4942948;28;20031;-93
2021/03/09 02:27:25;;;;;;;11.48;7.22;;;5.60;78.10;;;;;;4971938;28;20058;-92
2021/03/09 02:30:02;;;;;;;12.60;7.82;;;5.60;77.90;;;;;;4973133;28;20027;-92
2021/03/09 02:32:30;;;;;;;17.63;9.93;;;5.70;77.80;;;;;;4961800;28;20469;-93
2021/03/09 02:34:58;;;;;;;17.95;10.35;;;5.70;78.00;;;;;;4960109;28;20045;-93
2021/03/09 02:37:33;;;;;;;23.77;13.48;;;5.70;78.10;;;;;;4938628;29;20035;-92
2021/03/09 02:39:59;;;;;;;15.27;9.27;;;5.70;78.10;;;;;;4945300;28;20063;-93
2021/03/09 02:42:27;;;;;;;18.60;9.57;;;5.60;78.10;;;;;;4943601;28;20028;-94
2021/03/09 02:44:56;;;;;;;16.27;9.73;;;5.60;78.00;;;;;;4939235;28;20065;-94
2021/03/09 02:47:23;;;;;;;21.83;12.43;;;5.70;78.00;;;;;;4941342;28;20039;-93
2021/03/09 02:49:52;;;;;;;25.17;14.20;;;5.70;78.20;;;;;;4938533;29;20027;-94
2021/03/09 02:52:20;;;;;;;18.65;10.68;;;5.60;78.50;;;;;;4941111;28;20383;-94
2021/03/09 02:54:47;;;;;;;25.27;14.10;;;5.60;78.50;;;;;;4953826;28;20023;-94
2021/03/09 02:57:15;;;;;;;20.00;12.45;;;5.60;78.70;;;;;;4954971;28;20035;-93
2021/03/09 02:59:42;;;;;;;18.70;11.00;;;5.60;78.70;;;;;;4949965;29;20058;-93
2021/03/09 03:02:08;;;;;;;17.50;10.75;;;5.60;78.60;;;;;;4946885;29;20019;-92
2021/03/09 03:04:35;;;;;;;18.45;10.90;;;5.70;78.60;;;;;;4950829;28;20121;-94
2021/03/09 03:07:02;;;;;;;19.52;10.60;;;5.70;78.50;;;;;;4976861;28;20019;-95
2021/03/09 03:09:29;;;;;;;20.88;12.48;;;5.70;78.60;;;;;;4954925;28;20107;-94
2021/03/09 03:11:55;;;;;;;19.35;10.52;;;5.70;78.80;;;;;;4956606;29;20023;-96
2021/03/09 03:14:22;;;;;;;19.05;11.00;;;5.70;78.70;;;;;;4955812;28;20051;-96
2021/03/09 03:16:49;;;;;;;18.90;11.57;;;5.70;78.80;;;;;;4949438;29;20031;-96
2021/03/09 03:19:15;;;;;;;23.15;13.88;;;5.70;78.70;;;;;;4944417;28;20035;-95
2021/03/09 03:21:43;;;;;;;20.60;12.93;;;5.70;78.80;;;;;;4949244;28;20015;-93
2021/03/09 03:24:10;;;;;;;23.25;14.18;;;5.70;78.80;;;;;;4941250;29;20475;-96
2021/03/09 03:26:38;;;;;;;23.73;13.60;;;5.70;79.20;;;;;;4946997;29;20038;-96
2021/03/09 03:29:06;;;;;;;17.20;10.48;;;5.70;79.40;;;;;;4944009;28;20031;-94
2021/03/09 03:31:33;;;;;;;25.65;15.20;;;5.70;79.40;;;;;;4945830;28;20028;-93
2021/03/09 03:33:58;;;;;;;25.27;14.85;;;5.70;79.40;;;;;;4954103;29;20023;-95
2021/03/09 03:36:25;;;;;;;21.38;13.05;;;5.60;79.50;;;;;;4971005;28;20031;-95
2021/03/09 03:38:50;;;;;;;25.85;15.45;;;5.60;79.50;;;;;;4945912;28;20078;-93
2021/03/09 03:41:16;;;;;;;23.23;14.18;;;5.70;79.50;;;;;;4955237;29;20079;-91
2021/03/09 03:43:42;;;;;;;22.02;13.57;;;5.60;79.50;;;;;;4935751;29;20035;-92
2021/03/09 03:46:07;;;;;;;39.33;23.25;;;5.70;79.60;;;;;;4952016;28;20055;-93
2021/03/09 03:48:35;;;;;;;29.60;17.65;;;5.60;80.20;;;;;;4937755;29;20027;-92
2021/03/09 03:51:03;;;;;;;23.95;14.98;;;5.60;80.20;;;;;;4955813;28;20026;-93
2021/03/09 03:53:32;;;;;;;28.38;16.77;;;5.60;80.20;;;;;;4954918;29;20026;-93
2021/03/09 03:56:19;;;;;;;23.58;14.95;;;5.60;80.30;;;;;;4957818;28;20040;-89
2021/03/09 03:58:50;;;;;;;21.50;12.55;;;5.60;80.30;;;;;;4946272;29;20066;-91
2021/03/09 04:01:20;;;;;;;21.58;14.38;;;5.70;80.10;;;;;;4957014;28;20475;-90
2021/03/09 04:03:50;;;;;;;24.60;13.77;;;5.70;80.10;;;;;;4948684;28;20039;-89
2021/03/09 04:06:18;;;;;;;37.17;22.63;;;5.70;80.10;;;;;;4954779;29;20070;-92
2021/03/09 04:08:44;;;;;;;22.83;14.75;;;5.70;80.20;;;;;;4955885;28;20030;-91
2021/03/09 04:11:10;;;;;;;19.60;12.15;;;5.70;80.30;;;;;;4952686;28;20026;-89
2021/03/09 04:13:42;;;;;;;26.52;15.40;;;5.70;80.20;;;;;;4965534;28;20015;-90
2021/03/09 04:16:10;;;;;;;24.00;14.82;;;5.70;80.30;;;;;;4960815;28;20512;-91
2021/03/09 04:18:37;;;;;;;19.05;11.55;;;5.80;80.20;;;;;;4955585;29;20049;-90
2021/03/09 04:21:04;;;;;;;22.63;13.30;;;5.80;80.10;;;;;;4947076;28;20023;-90
2021/03/09 04:23:31;;;;;;;23.88;14.02;;;5.80;80.10;;;;;;4954285;29;20028;-89
2021/03/09 04:25:57;;;;;;;20.85;13.02;;;5.80;80.00;;;;;;4954580;28;20019;-90
2021/03/09 04:28:23;;;;;;;16.30;10.10;;;5.80;80.00;;;;;;4974912;28;20072;-90
2021/03/09 04:30:49;;;;;;;17.55;10.60;;;5.80;80.00;;;;;;4949685;28;20080;-91
2021/03/09 04:33:15;;;;;;;21.08;12.45;;;5.90;79.80;;;;;;4958264;28;20038;-91
2021/03/09 04:35:41;;;;;;;22.25;14.02;;;5.90;79.70;;;;;;4939545;28;20089;-92
2021/03/09 04:38:07;;;;;;;21.05;12.90;;;5.90;79.80;;;;;;4954453;29;20034;-92
2021/03/09 04:40:34;;;;;;;24.67;14.70;;;5.90;79.80;;;;;;4947748;29;20031;-94
2021/03/09 04:43:00;;;;;;;18.52;11.27;;;5.90;79.80;;;;;;4941461;28;20023;-92
2021/03/09 04:45:26;;;;;;;25.40;15.63;;;5.90;80.00;;;;;;4934899;29;20024;-92
2021/03/09 04:47:52;;;;;;;21.33;12.65;;;5.90;80.40;;;;;;4935903;29;20031;-93
2021/03/09 04:50:18;;;;;;;28.02;16.83;;;5.80;80.40;;;;;;4939703;29;20023;-92
2021/03/09 04:52:47;;;;;;;19.33;11.90;;;5.80;80.50;;;;;;4964563;28;20035;-92
2021/03/09 04:55:22;;;;;;;29.95;18.52;;;5.80;81.10;;;;;;4947586;28;20566;-89
2021/03/09 04:57:48;;;;;;;25.33;15.73;;;5.80;80.50;;;;;;4953500;28;20031;-90
2021/03/09 05:00:19;;;;;;;35.75;23.05;;;5.80;80.50;;;;;;4948612;29;20773;-90
2021/03/09 05:02:47;;;;;;;30.15;18.60;;;5.80;80.70;;;;;;4957427;28;20022;-90
2021/03/09 05:05:14;;;;;;;27.65;17.45;;;5.80;80.80;;;;;;4947854;28;20034;-93
2021/03/09 05:07:39;;;;;;;32.17;20.20;;;5.80;81.00;;;;;;4968726;28;20041;-92
2021/03/09 05:10:06;;;;;;;27.73;16.48;;;5.70;81.00;;;;;;4962958;28;20106;-93
2021/03/09 05:12:32;;;;;;;24.35;14.95;;;5.70;81.10;;;;;;4936153;29;20454;-92
2021/03/09 05:14:58;;;;;;;26.10;16.13;;;5.80;81.10;;;;;;4954410;28;20031;-91
2021/03/09 05:17:24;;;;;;;27.00;17.02;;;5.80;81.40;;;;;;4942063;29;20058;-91
2021/03/09 05:19:49;;;;;;;24.17;14.55;;;5.80;81.40;;;;;;4953864;28;20070;-91
2021/03/09 05:22:15;;;;;;;20.00;12.48;;;5.80;81.30;;;;;;4954492;28;20464;-90
2021/03/09 05:24:40;;;;;;;26.52;17.00;;;5.80;81.20;;;;;;4959942;28;20039;-92
2021/03/09 05:27:06;;;;;;;24.83;15.10;;;5.80;81.80;;;;;;4955266;29;20020;-92
2021/03/09 05:29:32;;;;;;;39.78;25.67;;;5.90;81.10;;;;;;4956482;29;20467;-96
2021/03/09 05:31:57;;;;;;;31.98;19.77;;;5.90;81.10;;;;;;4957852;29;20020;-94
2021/03/09 05:34:23;;;;;;;23.70;14.10;;;5.90;81.20;;;;;;4953952;28;20038;-93
2021/03/09 05:36:49;;;;;;;26.45;16.70;;;5.90;81.20;;;;;;4964122;28;20018;-93
2021/03/09 05:39:15;;;;;;;27.48;17.30;;;6.00;80.90;;;;;;4949279;29;20067;-92
2021/03/09 05:41:41;;;;;;;31.95;19.65;;;6.00;80.80;;;;;;4966122;28;20467;-91
2021/03/09 05:44:07;;;;;;;27.92;17.00;;;6.00;80.70;;;;;;4969538;28;20045;-93
2021/03/09 05:46:32;;;;;;;41.28;26.10;;;6.00;80.60;;;;;;4957054;28;20027;-94
2021/03/09 05:48:58;;;;;;;40.38;24.35;;;6.10;80.70;;;;;;4941984;28;20035;-91
2021/03/09 05:51:24;;;;;;;33.83;20.98;;;6.00;80.80;;;;;;4950249;29;20035;-93
2021/03/09 05:53:50;;;;;;;31.27;20.15;;;6.00;80.80;;;;;;4956945;28;20024;-95
2021/03/09 05:56:16;;;;;;;32.38;20.80;;;6.00;80.80;;;;;;4941683;29;20035;-92
2021/03/09 05:58:41;;;;;;;38.47;24.27;;;6.00;80.80;;;;;;4972444;28;20039;-93
2021/03/09 06:01:07;;;;;;;42.22;27.30;;;6.00;80.90;;;;;;4970992;28;20074;-94
2021/03/09 06:03:33;;;;;;;34.67;21.83;;;5.90;81.10;;;;;;4962765;28;20042;-96
2021/03/09 06:05:58;;;;;;;34.53;22.23;;;6.00;81.20;;;;;;4953374;28;20023;-94
2021/03/09 06:08:24;;;;;;;35.35;22.60;;;6.00;81.70;;;;;;4952167;28;20131;-94
2021/03/09 06:10:50;;;;;;;40.67;25.52;;;6.00;81.00;;;;;;4958297;29;20023;-90
2021/03/09 06:13:33;;;;;;;34.83;22.67;;;6.00;81.00;;;;;;4967411;28;20062;-91
2021/03/09 06:15:59;;;;;;;27.88;17.95;;;6.00;81.20;;;;;;4968769;28;20019;-91
2021/03/09 06:18:25;;;;;;;34.88;22.40;;;6.00;81.20;;;;;;4942998;29;20027;-91
2021/03/09 06:21:12;;;;;;;33.58;21.40;;;6.00;81.20;;;;;;4938659;29;20341;-92
2021/03/09 06:23:39;;;;;;;29.10;18.15;;;6.00;81.20;;;;;;4958589;28;20050;-94
2021/03/09 06:26:37;;;;;;;34.55;22.80;;;6.00;81.20;;;;;;4958515;28;20019;-93
2021/03/09 06:29:18;;;;;;;29.13;18.52;;;6.00;81.30;;;;;;4946622;28;20024;-95
2021/03/09 06:34:30;;;;;;;34.88;21.65;;;6.00;81.80;;;;;;4966170;23;20763;-96
2021/03/09 06:37:14;;;;;;;23.40;14.85;;;6.00;81.20;;;;;;4963381;28;20035;-96
2021/03/09 06:40:02;;;;;;;47.38;29.55;;;6.10;81.20;;;;;;4968744;28;20042;-95
2021/03/09 06:42:30;;;;;;;25.00;16.67;;;6.00;81.50;;;;;;4948055;29;20098;-87
2021/03/09 06:45:02;;;;;;;35.13;22.02;;;6.00;81.50;;;;;;4944537;29;20067;-90
2021/03/09 06:47:35;;;;;;;38.00;23.30;;;6.00;81.60;;;;;;4960131;28;20378;-91
2021/03/09 06:50:03;;;;;;;27.50;16.88;;;6.00;81.60;;;;;;4943686;29;20133;-95
2021/03/09 06:52:29;;;;;;;30.85;20.08;;;6.00;81.60;;;;;;4948495;29;20098;-92
2021/03/09 06:54:56;;;;;;;35.05;22.75;;;6.00;81.80;;;;;;4957668;29;20174;-90
2021/03/09 06:57:23;;;;;;;31.23;20.80;;;6.00;81.90;;;;;;4944860;28;20027;-88
2021/03/09 06:59:50;;;;;;;35.10;21.48;;;6.00;81.80;;;;;;4952201;29;20042;-91
2021/03/09 07:02:24;;;;;;;26.65;16.75;;;6.00;81.80;;;;;;4960471;28;20493;-91
2021/03/09 07:04:52;;;;;;;31.48;19.48;;;6.10;81.80;;;;;;4937699;29;20087;-90
2021/03/09 07:07:29;;;;;;;28.80;18.45;;;6.10;81.60;;;;;;4958508;28;20043;-87
2021/03/09 07:09:57;;;;;;;30.75;19.48;;;6.20;81.60;;;;;;4955108;29;20039;-88
2021/03/09 07:12:24;;;;;;;26.88;17.23;;;6.20;81.60;;;;;;4945908;29;20024;-91
2021/03/09 07:14:51;;;;;;;27.73;18.58;;;6.20;81.50;;;;;;4955384;29;20031;-91
2021/03/09 07:17:20;;;;;;;22.17;13.40;;;6.20;81.60;;;;;;4956057;28;20051;-90
2021/03/09 07:19:46;;;;;;;28.13;18.48;;;6.20;81.50;;;;;;4953744;28;20470;-90
2021/03/09 07:22:14;;;;;;;22.80;14.93;;;6.20;81.50;;;;;;4956163;29;20019;-89
2021/03/09 07:25:06;;;;;;;26.05;14.73;;;6.20;81.60;;;;;;4954783;28;20138;-90
2021/03/09 07:27:41;;;;;;;20.10;13.23;;;6.30;81.70;;;;;;4955197;29;20170;-90
2021/03/09 07:30:09;;;;;;;18.00;11.77;;;6.30;81.60;;;;;;4956074;29;20430;-88
2021/03/09 07:32:39;;;;;;;23.05;13.85;;;6.30;81.60;;;;;;4955814;28;20051;-94
2021/03/09 07:35:07;;;;;;;16.20;10.75;;;6.30;81.70;;;;;;4970183;28;20106;-94
2021/03/09 07:37:38;;;;;;;21.45;13.68;;;6.40;81.70;;;;;;4960306;29;20074;-94
2021/03/09 07:40:07;;;;;;;16.90;10.88;;;6.40;81.60;;;;;;4960486;29;20041;-95
2021/03/09 07:42:33;;;;;;;20.98;12.80;;;6.50;81.50;;;;;;4959138;28;20050;-96
2021/03/09 07:44:59;;;;;;;18.55;11.68;;;6.50;81.40;;;;;;4958801;29;20024;-94
2021/03/09 07:47:26;;;;;;;16.50;10.70;;;6.50;81.30;;;;;;4962490;29;20065;-96
2021/03/09 07:49:52;;;;;;;18.48;11.02;;;6.60;81.30;;;;;;4960972;28;20027;-94
2021/03/09 07:52:20;;;;;;;18.58;12.07;;;6.60;81.10;;;;;;4939880;29;20027;-90
2021/03/09 07:55:04;;;;;;;17.67;11.73;;;6.70;81.20;;;;;;4955431;28;20138;-90
2021/03/09 07:57:31;;;;;;;17.85;11.20;;;6.70;81.20;;;;;;4969929;28;20386;-88
2021/03/09 07:59:58;;;;;;;14.32;9.38;;;6.70;81.20;;;;;;4954030;28;20126;-87
2021/03/09 08:02:40;;;;;;;17.17;11.75;;;6.80;81.20;;;;;;4952470;29;20074;-85
2021/03/09 08:05:10;;;;;;;12.70;8.30;;;6.80;81.40;;;;;;4949698;29;20035;-85
2021/03/09 08:07:45;;;;;;;10.70;6.88;;;6.80;81.30;;;;;;4949792;29;20093;-87
2021/03/09 08:10:33;;;;;;;14.13;9.50;;;6.90;81.20;;;;;;4952478;29;20466;-86
2021/03/09 08:13:08;;;;;;;12.65;8.40;;;6.90;81.30;;;;;;4947225;29;20038;-89
2021/03/09 08:15:40;;;;;;;11.88;7.43;;;6.90;81.40;;;;;;4953524;28;20031;-88
2021/03/09 08:18:23;;;;;;;10.23;6.70;;;6.90;81.30;;;;;;4952939;29;20692;-89
2021/03/09 08:20:53;;;;;;;11.20;6.32;;;7.00;81.20;;;;;;4944997;29;20532;-89
2021/03/09 08:23:36;;;;;;;9.98;6.25;;;7.10;81.10;;;;;;4953559;28;20490;-89
2021/03/09 08:26:06;;;;;;;10.05;5.95;;;7.10;81.10;;;;;;4970511;28;20042;-89
2021/03/09 08:28:44;;;;;;;10.10;6.22;;;7.10;80.90;;;;;;4952885;28;20486;-89
2021/03/09 08:31:15;;;;;;;9.55;6.45;;;7.20;80.90;;;;;;4977181;28;20576;-89
2021/03/09 08:33:47;;;;;;;9.80;6.07;;;7.20;80.80;;;;;;4962321;28;20038;-88
2021/03/09 08:36:19;;;;;;;10.30;6.28;;;7.20;80.80;;;;;;4948216;28;20031;-89
2021/03/09 08:39:05;;;;;;;12.65;8.25;;;7.30;80.80;;;;;;4949352;29;20064;-89
2021/03/09 08:41:42;;;;;;;10.00;7.00;;;7.30;80.80;;;;;;4943878;29;20023;-91
2021/03/09 08:44:14;;;;;;;8.18;5.70;;;7.30;80.90;;;;;;4963209;28;20058;-92
2021/03/09 08:47:03;;;;;;;12.18;6.97;;;7.30;80.80;;;;;;4953019;28;20073;-91
2021/03/09 08:49:37;;;;;;;11.65;6.95;;;7.40;80.80;;;;;;4956979;28;20020;-91
2021/03/09 08:52:07;;;;;;;8.73;5.53;;;7.40;80.90;;;;;;4937156;29;20031;-91
2021/03/09 08:54:36;;;;;;;8.82;5.15;;;7.40;80.90;;;;;;4957166;28;20027;-89
2021/03/09 08:57:10;;;;;;;7.82;5.45;;;7.40;80.90;;;;;;4951811;29;20034;-89
2021/03/09 08:59:39;;;;;;;7.15;4.60;;;7.50;80.90;;;;;;4954231;28;20039;-90
2021/03/09 09:02:08;;;;;;;10.55;5.82;;;7.50;80.90;;;;;;4950095;29;20039;-88
2021/03/09 09:04:34;;;;;;;7.35;4.95;;;7.60;80.90;;;;;;4952819;28;20026;-89
2021/03/09 09:07:15;;;;;;;8.73;4.90;;;7.70;80.80;;;;;;4950361;29;20107;-87
2021/03/09 09:09:41;;;;;;;5.85;3.30;;;7.60;80.90;;;;;;4942826;29;20019;-91
2021/03/09 09:12:23;;;;;;;7.75;4.75;;;7.70;80.90;;;;;;4952268;29;20046;-90
2021/03/09 09:15:14;;;;;;;4.28;2.90;;;7.70;80.80;;;;;;4953298;29;20031;-90
2021/03/09 09:17:47;;;;;;;4.32;2.83;;;7.70;80.80;;;;;;4934170;29;20084;-90
2021/03/09 09:20:22;;;;;;;4.32;2.67;;;7.80;80.70;;;;;;4956901;28;20047;-92
2021/03/09 09:22:51;;;;;;;3.00;2.10;;;7.80;80.50;;;;;;4941023;29;20048;-91
2021/03/09 09:25:16;;;;;;;3.53;2.30;;;7.90;80.50;;;;;;4948144;28;20637;-90
2021/03/09 09:27:53;;;;;;;4.70;2.28;;;7.90;80.40;;;;;;4952796;29;20098;-89
2021/03/09 09:30:20;;;;;;;4.45;2.25;;;7.80;80.50;;;;;;4950084;29;20498;-90
2021/03/09 09:33:05;;;;;;;2.83;1.75;;;7.90;80.50;;;;;;4953443;28;20474;-91
2021/03/09 09:35:33;;;;;;;3.63;1.95;;;7.90;80.50;;;;;;4949635;29;20023;-91
2021/03/09 09:38:04;;;;;;;3.33;1.88;;;8.00;80.40;;;;;;4942952;29;20027;-92
2021/03/09 09:40:40;;;;;;;2.83;1.60;;;8.00;80.40;;;;;;4946266;28;20063;-91
2021/03/09 09:43:11;;;;;;;3.35;1.88;;;8.10;80.20;;;;;;4944721;29;20055;-90
2021/03/09 09:45:42;;;;;;;4.90;1.98;;;8.20;80.10;;;;;;4952794;29;20027;-90
2021/03/09 09:48:13;;;;;;;3.00;1.67;;;8.30;80.10;;;;;;4966157;28;20126;-90
2021/03/09 09:50:43;;;;;;;2.95;1.60;;;8.20;79.90;;;;;;4952608;29;20498;-89
2021/03/09 09:53:09;;;;;;;2.35;1.70;;;8.30;79.90;;;;;;4951762;29;20170;-91
2021/03/09 09:55:35;;;;;;;1.90;1.70;;;8.20;79.80;;;;;;4958197;28;20106;-88
2021/03/09 09:58:01;;;;;;;1.67;1.42;;;8.30;79.80;;;;;;4951966;28;20023;-90
2021/03/09 10:00:32;;;;;;;2.78;1.80;;;8.30;79.80;;;;;;4951427;29;20465;-90
2021/03/09 10:03:14;;;;;;;1.92;1.73;;;8.40;79.80;;;;;;4949794;29;20027;-91
2021/03/09 10:05:42;;;;;;;2.08;1.60;;;8.40;79.70;;;;;;4952032;29;20394;-90
2021/03/09 10:08:09;;;;;;;3.33;2.03;;;8.40;79.50;;;;;;4951888;28;20597;-89
2021/03/09 10:10:37;;;;;;;2.38;1.90;;;8.40;79.50;;;;;;4951538;29;20038;-88
2021/03/09 10:13:18;;;;;;;3.10;1.67;;;8.40;79.50;;;;;;4950782;28;20015;-90
2021/03/09 10:15:46;;;;;;;2.75;1.35;;;8.60;79.50;;;;;;4949447;29;20031;-88
2021/03/09 10:18:15;;;;;;;1.80;1.40;;;8.70;79.20;;;;;;4952173;28;20019;-89
2021/03/09 10:20:42;;;;;;;1.98;1.48;;;8.70;79.00;;;;;;4944980;28;20122;-87
2021/03/09 10:23:08;;;;;;;2.85;1.30;;;8.60;78.90;;;;;;4950434;29;20178;-86
2021/03/09 10:25:38;;;;;;;3.33;1.40;;;8.60;78.80;;;;;;4950346;28;20054;-88
2021/03/09 10:28:05;;;;;;;1.88;1.30;;;8.60;78.90;;;;;;4951534;28;20484;-90
2021/03/09 10:30:41;;;;;;;3.13;2.08;;;8.50;78.80;;;;;;4950576;29;20035;-90
2021/03/09 10:33:11;;;;;;;2.17;1.48;;;8.50;78.60;;;;;;4947161;29;20563;-90
2021/03/09 10:36:02;;;;;;;3.50;1.40;;;8.40;78.70;;;;;;4944059;28;20496;-91
2021/03/09 10:38:29;;;;;;;3.85;1.38;;;8.50;78.80;;;;;;4951677;29;20067;-90
2021/03/09 10:40:54;;;;;;;2.20;1.50;;;8.50;78.60;;;;;;4953327;28;20034;-92
2021/03/09 10:43:43;;;;;;;2.40;1.50;;;8.50;78.40;;;;;;4952069;29;20027;-92
2021/03/09 10:46:10;;;;;;;1.83;1.05;;;8.60;78.30;;;;;;4953588;29;20465;-92
2021/03/09 10:48:40;;;;;;;2.33;1.13;;;8.60;78.20;;;;;;4952049;29;20110;-91
2021/03/09 10:51:19;;;;;;;1.13;1.00;;;8.60;78.10;;;;;;4948733;29;20024;-90
2021/03/09 10:53:45;;;;;;;2.05;1.20;;;8.60;78.00;;;;;;4953322;28;20098;-91
2021/03/09 10:56:12;;;;;;;1.25;1.05;;;8.60;77.90;;;;;;4956287;28;20378;-90
2021/03/09 10:58:37;;;;;;;1.20;1.10;;;8.70;77.90;;;;;;4948601;28;20063;-90
2021/03/09 11:01:03;;;;;;;1.85;1.00;;;8.70;77.90;;;;;;4952125;28;20032;-91
2021/03/09 11:03:29;;;;;;;2.97;1.15;;;8.70;77.90;;;;;;4953980;29;20034;-90
2021/03/09 11:05:54;;;;;;;1.33;0.90;;;8.70;77.70;;;;;;4955177;29;20027;-90
2021/03/09 11:08:22;;;;;;;1.05;0.95;;;8.70;77.60;;;;;;4952280;29;20026;-90
2021/03/09 11:10:47;;;;;;;1.00;0.85;;;8.70;77.60;;;;;;4955936;28;20546;-91
2021/03/09 11:13:16;;;;;;;0.93;0.90;;;8.70;77.50;;;;;;4950806;28;20019;-89
2021/03/09 11:15:41;;;;;;;0.98;0.70;;;8.80;78.10;;;;;;4949558;29;20099;-89
2021/03/09 11:18:07;;;;;;;1.38;0.90;;;8.80;77.10;;;;;;4955893;29;20098;-89
2021/03/09 11:20:32;;;;;;;1.35;0.95;;;8.90;76.90;;;;;;4956365;29;20114;-90
2021/03/09 11:22:58;;;;;;;1.50;1.00;;;8.90;76.60;;;;;;4950014;28;20019;-91
2021/03/09 11:25:24;;;;;;;1.05;0.90;;;8.90;76.60;;;;;;4954935;29;20038;-89
2021/03/09 11:27:50;;;;;;;1.88;1.00;;;9.00;76.50;;;;;;4946952;29;20020;-89
2021/03/09 11:30:16;;;;;;;1.55;0.77;;;8.90;76.30;;;;;;4955168;28;20047;-91
2021/03/09 11:32:42;;;;;;;1.50;1.13;;;8.90;76.40;;;;;;4956725;29;20023;-91
2021/03/09 11:35:08;;;;;;;2.15;1.10;;;8.90;76.50;;;;;;4953081;28;20054;-88
2021/03/09 11:37:33;;;;;;;2.03;0.95;;;8.70;76.60;;;;;;4957778;28;20031;-90
2021/03/09 11:39:59;;;;;;;0.77;0.70;;;8.60;76.90;;;;;;4959439;28;20401;-88
2021/03/09 11:42:24;;;;;;;0.80;0.80;;;8.60;77.10;;;;;;4958087;28;20028;-89
2021/03/09 11:44:50;;;;;;;0.73;0.55;;;8.50;77.00;;;;;;4947517;29;20108;-88
2021/03/09 11:47:15;;;;;;;0.93;0.75;;;8.50;77.00;;;;;;4956831;28;20038;-86
2021/03/09 11:49:41;;;;;;;2.17;0.82;;;8.40;77.00;;;;;;4971513;28;20042;-87
2021/03/09 11:52:07;;;;;;;0.60;0.60;;;8.40;77.10;;;;;;4965246;28;20027;-86
2021/03/09 11:54:33;;;;;;;0.65;0.65;;;8.40;77.10;;;;;;4954318;28;20113;-86
2021/03/09 11:56:58;;;;;;;0.60;0.60;;;8.50;77.20;;;;;;4961556;28;20059;-87
2021/03/09 11:59:24;;;;;;;0.70;0.68;;;8.50;77.10;;;;;;4957704;28;20043;-86
2021/03/09 12:01:50;;;;;;;0.80;0.60;;;8.60;77.10;;;;;;4946019;28;20024;-86
2021/03/09 12:04:16;;;;;;;0.55;0.55;;;8.70;76.90;;;;;;4948823;28;20031;-86
2021/03/09 12:06:42;;;;;;;0.60;0.57;;;8.80;76.70;;;;;;4952747;28;20506;-85
2021/03/09 12:09:08;;;;;;;0.60;0.60;;;8.80;76.60;;;;;;4958572;28;20027;-87
2021/03/09 12:11:36;;;;;;;0.90;0.70;;;8.70;76.60;;;;;;4951830;28;20050;-86
2021/03/09 12:14:02;;;;;;;1.25;0.60;;;8.70;76.50;;;;;;4958895;28;20027;-87
2021/03/09 12:16:28;;;;;;;0.60;0.55;;;8.70;76.60;;;;;;4951471;29;20086;-90
2021/03/09 12:18:55;;;;;;;0.50;0.50;;;8.70;76.60;;;;;;4956753;28;20070;-89
2021/03/09 12:21:20;;;;;;;1.02;0.60;;;8.80;76.70;;;;;;4952216;29;20046;-89
2021/03/09 12:23:48;;;;;;;0.60;0.60;;;8.80;76.60;;;;;;4959558;28;20027;-89
2021/03/09 12:26:13;;;;;;;0.63;0.63;;;8.80;76.60;;;;;;4958021;28;20473;-90
2021/03/09 12:28:39;;;;;;;1.45;0.63;;;8.80;76.60;;;;;;4956798;28;20070;-89
2021/03/09 12:31:04;;;;;;;0.60;0.60;;;8.80;76.60;;;;;;4953645;29;20059;-90
2021/03/09 12:33:31;;;;;;;0.85;0.60;;;8.80;77.30;;;;;;4954138;29;20110;-90
2021/03/09 12:35:57;;;;;;;0.90;0.60;;;8.70;76.60;;;;;;4947284;28;20023;-90
2021/03/09 12:38:22;;;;;;;0.90;0.90;;;8.70;76.80;;;;;;4954414;28;20031;-88
2021/03/09 12:40:48;;;;;;;1.73;0.70;;;8.80;77.00;;;;;;4956252;28;20031;-91
2021/03/09 12:43:15;;;;;;;1.55;0.80;;;8.70;77.00;;;;;;4954743;28;20026;-90
2021/03/09 12:45:42;;;;;;;1.60;0.90;;;8.70;77.10;;;;;;4953913;29;20142;-89
2021/03/09 12:48:08;;;;;;;0.70;0.70;;;8.60;77.10;;;;;;4961201;28;20106;-89
2021/03/09 12:50:33;;;;;;;1.77;0.80;;;8.60;77.20;;;;;;4950637;29;20167;-90
2021/03/09 12:53:03;;;;;;;1.52;0.90;;;8.60;77.30;;;;;;4947269;28;20027;-89
2021/03/09 12:55:30;;;;;;;0.95;0.82;;;8.60;77.30;;;;;;4964266;28;20023;-89
2021/03/09 12:57:56;;;;;;;1.30;0.70;;;8.60;77.20;;;;;;4953854;28;20030;-92